createdAt,value
2023-03-11T00:02:22.540Z,48.53
2023-03-11T00:04:49.210Z,48.56
2023-03-11T00:07:15.961Z,48.44
2023-03-11T00:09:42.641Z,48.80
2023-03-11T00:12:09.331Z,48.84
2023-03-11T00:14:36.055Z,48.71
2023-03-11T00:17:02.719Z,48.42
2023-03-11T00:19:29.342Z,48.38
2023-03-11T00:21:56.097Z,48.64
2023-03-11T00:24:22.748Z,48.49
2023-03-11T00:26:49.514Z,48.29
2023-03-11T00:29:16.180Z,48.42
2023-03-11T00:31:42.834Z,48.32
2023-03-11T00:34:09.519Z,48.57
2023-03-11T00:36:36.279Z,48.97
2023-03-11T00:39:07.542Z,49.02
2023-03-11T00:41:34.866Z,48.82
2023-03-11T00:44:01.666Z,48.32
2023-03-11T00:46:31.193Z,48.32
2023-03-11T00:48:58.036Z,48.59
2023-03-11T00:51:24.803Z,48.86
2023-03-11T00:53:51.586Z,49.04
2023-03-11T00:56:18.662Z,49.43
2023-03-11T00:58:45.978Z,49.27
2023-03-11T01:01:21.766Z,49.09
2023-03-11T01:03:48.748Z,48.76
2023-03-11T01:06:16.746Z,49.03
2023-03-11T01:08:43.448Z,48.93
2023-03-11T01:11:10.183Z,49.35
2023-03-11T01:13:37.016Z,48.93
2023-03-11T01:16:03.790Z,48.90
2023-03-11T01:18:30.811Z,48.03
2023-03-11T01:20:57.482Z,48.37
2023-03-11T01:23:24.124Z,48.34
2023-03-11T01:25:50.796Z,48.38
2023-03-11T01:28:17.604Z,48.10
2023-03-11T01:30:44.928Z,46.98
2023-03-11T01:33:18.046Z,47.32
2023-03-11T01:35:46.086Z,47.31
2023-03-11T01:38:13.121Z,47.67
2023-03-11T01:40:48.967Z,47.71
2023-03-11T01:43:41.906Z,46.94
2023-03-11T01:47:00.087Z,46.94
2023-03-11T01:49:33.026Z,46.49
2023-03-11T01:52:08.005Z,46.45
2023-03-11T01:54:41.610Z,47.40
2023-03-11T01:57:13.453Z,47.92
2023-03-11T01:59:47.715Z,48.92
2023-03-11T02:02:35.906Z,49.92
2023-03-11T02:05:04.107Z,49.67
2023-03-11T02:07:31.575Z,49.97
2023-03-11T02:09:59.557Z,50.94
2023-03-11T02:12:31.128Z,50.14
2023-03-11T02:14:58.129Z,50.04
2023-03-11T02:17:25.060Z,50.68
2023-03-11T02:20:06.308Z,50.52
2023-03-11T02:22:33.857Z,50.33
2023-03-11T02:25:07.308Z,50.89
2023-03-11T02:27:37.247Z,51.34
2023-03-11T02:30:07.059Z,51.24
2023-03-11T02:32:37.690Z,51.62
2023-03-11T02:35:05.700Z,51.15
2023-03-11T02:37:32.608Z,50.74
2023-03-11T02:40:27.014Z,51.70
2023-03-11T02:43:05.939Z,52.16
2023-03-11T02:45:35.923Z,51.59
2023-03-11T02:48:03.247Z,51.43
2023-03-11T02:50:32.135Z,52.56
2023-03-11T02:52:58.832Z,52.70
2023-03-11T02:55:25.579Z,52.53
2023-03-11T02:57:52.174Z,53.22
2023-03-11T03:00:19.192Z,53.50
2023-03-11T03:02:53.411Z,53.59
2023-03-11T03:05:21.912Z,52.32
2023-03-11T03:07:51.340Z,52.17
2023-03-11T03:10:20.384Z,52.25
2023-03-11T03:12:47.722Z,51.64
2023-03-11T03:15:16.017Z,52.30
2023-03-11T03:17:44.491Z,51.63
2023-03-11T03:20:13.295Z,52.24
2023-03-11T03:22:44.571Z,53.24
2023-03-11T03:25:14.451Z,53.50
2023-03-11T03:27:41.067Z,53.47
2023-03-11T03:30:08.754Z,52.94
2023-03-11T03:32:36.543Z,53.25
2023-03-11T03:35:05.230Z,51.81
2023-03-11T03:37:55.321Z,52.29
2023-03-11T03:40:23.087Z,52.27
2023-03-11T03:42:51.348Z,52.49
2023-03-11T03:45:19.113Z,52.30
2023-03-11T03:47:46.586Z,52.46
2023-03-11T03:50:13.533Z,51.85
2023-03-11T03:52:44.044Z,52.58
2023-03-11T03:55:11.248Z,52.45
2023-03-11T03:57:38.729Z,52.39
2023-03-11T04:00:10.309Z,52.84
2023-03-11T04:02:45.537Z,52.55
2023-03-11T04:05:22.022Z,53.16
2023-03-11T04:07:48.769Z,53.35
2023-03-11T04:10:15.719Z,53.58
2023-03-11T04:12:43.408Z,53.04
2023-03-11T04:15:10.357Z,53.74
2023-03-11T04:17:38.374Z,52.41
2023-03-11T04:20:10.301Z,52.50
2023-03-11T04:22:37.138Z,52.24
2023-03-11T04:25:05.400Z,52.51
2023-03-11T04:27:33.003Z,53.31
2023-03-11T04:30:00.600Z,53.05
2023-03-11T04:32:27.559Z,52.12
2023-03-11T04:34:54.283Z,51.65
2023-03-11T04:37:20.979Z,51.99
2023-03-11T04:39:47.957Z,52.74
2023-03-11T04:42:15.840Z,51.42
2023-03-11T04:44:43.728Z,51.89
2023-03-11T04:47:10.426Z,51.52
2023-03-11T04:49:37.980Z,52.55
2023-03-11T04:52:04.996Z,52.99
2023-03-11T04:54:31.680Z,52.75
2023-03-11T04:56:58.432Z,51.89
2023-03-11T04:59:25.671Z,53.08
2023-03-11T05:01:52.911Z,53.20
2023-03-11T05:04:19.686Z,53.74
2023-03-11T05:06:46.645Z,53.10
2023-03-11T05:09:13.986Z,53.68
2023-03-11T05:11:41.090Z,54.73
2023-03-11T05:14:08.521Z,54.28
2023-03-11T05:16:35.557Z,55.22
2023-03-11T05:19:25.252Z,55.63
2023-03-11T05:21:52.332Z,55.85
2023-03-11T05:24:19.886Z,55.26
2023-03-11T05:26:48.540Z,54.70
2023-03-11T05:29:15.957Z,54.83
2023-03-11T05:31:43.484Z,54.50
2023-03-11T05:34:10.566Z,54.69
2023-03-11T05:36:37.674Z,54.93
2023-03-11T05:39:05.190Z,54.34
2023-03-11T05:41:34.358Z,53.41
2023-03-11T05:44:01.701Z,53.68
2023-03-11T05:46:28.446Z,54.44
2023-03-11T05:48:55.900Z,54.47
2023-03-11T05:51:22.904Z,54.53
2023-03-11T05:53:49.666Z,54.69
2023-03-11T05:56:23.712Z,55.19
2023-03-11T05:58:53.119Z,54.77
2023-03-11T06:01:20.836Z,55.37
2023-03-11T06:03:48.104Z,54.80
2023-03-11T06:06:15.113Z,55.55
2023-03-11T06:08:46.028Z,55.54
2023-03-11T06:11:13.092Z,55.89
2023-03-11T06:13:40.074Z,55.76
2023-03-11T06:16:09.726Z,54.62
2023-03-11T06:18:36.718Z,51.18
2023-03-11T06:21:05.527Z,49.40
2023-03-11T06:23:33.085Z,47.63
2023-03-11T06:26:04.071Z,47.37
2023-03-11T06:28:35.666Z,46.94
2023-03-11T06:31:11.059Z,47.04
2023-03-11T06:33:38.349Z,46.47
2023-03-11T06:36:06.640Z,46.80
2023-03-11T06:38:37.301Z,47.03
2023-03-11T06:41:06.341Z,46.60
2023-03-11T06:43:35.725Z,46.81
2023-03-11T06:46:09.836Z,47.05
2023-03-11T06:48:36.874Z,46.39
2023-03-11T06:51:04.111Z,46.43
2023-03-11T06:53:32.614Z,46.29
2023-03-11T06:56:05.677Z,46.56
2023-03-11T06:58:38.776Z,46.69
2023-03-11T07:01:13.316Z,46.55
2023-03-11T07:03:40.429Z,47.40
2023-03-11T07:06:11.421Z,47.81
2023-03-11T07:08:38.310Z,48.21
2023-03-11T07:11:27.301Z,48.79
2023-03-11T07:14:00.482Z,46.05
2023-03-11T07:16:31.106Z,46.25
2023-03-11T07:19:05.062Z,46.04
2023-03-11T07:21:32.730Z,45.18
2023-03-11T07:24:01.774Z,43.66
2023-03-11T07:26:29.612Z,43.58
2023-03-11T07:28:57.479Z,43.36
2023-03-11T07:31:30.329Z,43.18
2023-03-11T07:33:58.939Z,42.59
2023-03-11T07:36:26.424Z,42.86
2023-03-11T07:39:04.448Z,43.19
2023-03-11T07:41:33.536Z,42.77
2023-03-11T07:44:01.601Z,43.04
2023-03-11T07:46:29.915Z,42.52
2023-03-11T07:48:56.651Z,41.17
2023-03-11T07:51:25.975Z,41.14
2023-03-11T07:53:54.419Z,41.22
2023-03-11T07:56:23.682Z,41.18
2023-03-11T07:58:51.394Z,41.08
2023-03-11T08:01:21.348Z,40.82
2023-03-11T08:03:51.055Z,41.36
2023-03-11T08:06:20.530Z,41.39
2023-03-11T08:08:48.480Z,41.28
2023-03-11T08:11:16.602Z,40.88
2023-03-11T08:13:44.908Z,40.98
2023-03-11T08:16:15.434Z,41.05
2023-03-11T08:18:43.050Z,41.66
2023-03-11T08:21:12.816Z,41.21
2023-03-11T08:23:39.671Z,41.24
2023-03-11T08:26:08.678Z,41.10
2023-03-11T08:28:35.561Z,40.18
2023-03-11T08:31:02.871Z,41.01
2023-03-11T08:33:29.756Z,40.69
2023-03-11T08:35:56.776Z,40.01
2023-03-11T08:38:23.691Z,40.89
2023-03-11T08:40:50.326Z,40.48
2023-03-11T08:43:17.058Z,40.50
2023-03-11T08:45:44.118Z,40.83
2023-03-11T08:48:12.493Z,39.90
2023-03-11T08:50:53.999Z,40.17
2023-03-11T08:53:22.868Z,39.17
2023-03-11T08:55:51.294Z,39.34
2023-03-11T08:58:18.802Z,38.72
2023-03-11T09:00:46.234Z,39.49
2023-03-11T09:03:13.690Z,39.65
2023-03-11T09:05:40.919Z,40.20
2023-03-11T09:08:07.986Z,40.05
2023-03-11T09:10:34.756Z,39.75
2023-03-11T09:13:01.841Z,39.39
2023-03-11T09:15:28.567Z,40.14
2023-03-11T09:17:55.839Z,39.95
2023-03-11T09:20:22.762Z,39.36
2023-03-11T09:22:49.499Z,40.06
2023-03-11T09:25:16.480Z,39.66
2023-03-11T09:27:43.293Z,39.44
2023-03-11T09:30:10.676Z,39.85
2023-03-11T09:32:37.572Z,39.73
2023-03-11T09:35:04.958Z,40.81
2023-03-11T09:37:31.963Z,40.39
2023-03-11T09:39:58.624Z,40.63
2023-03-11T09:42:34.411Z,40.56
2023-03-11T09:45:03.883Z,40.45
2023-03-11T09:47:59.890Z,40.00
2023-03-11T09:50:41.285Z,40.20
2023-03-11T09:53:49.811Z,39.43
2023-03-11T09:56:20.161Z,40.10
2023-03-11T09:58:56.321Z,39.45
2023-03-11T10:01:40.538Z,39.84
2023-03-11T10:04:16.196Z,39.87
2023-03-11T10:06:46.024Z,39.11
2023-03-11T10:09:12.850Z,38.34
2023-03-11T10:11:53.327Z,38.34
2023-03-11T10:14:34.202Z,38.66
2023-03-11T10:17:05.923Z,38.39
2023-03-11T10:20:04.980Z,37.77
2023-03-11T10:22:41.610Z,38.37
2023-03-11T10:25:14.175Z,37.50
2023-03-11T10:27:48.079Z,37.82
2023-03-11T10:30:29.687Z,37.21
2023-03-11T10:33:22.533Z,38.23
2023-03-11T10:35:54.471Z,37.97
2023-03-11T10:38:33.354Z,37.70
2023-03-11T10:41:04.579Z,37.27
2023-03-11T10:43:39.981Z,37.53
2023-03-11T10:46:18.830Z,37.49
2023-03-11T10:48:45.515Z,37.31
2023-03-11T10:51:22.694Z,37.70
2023-03-11T10:53:54.128Z,37.89
2023-03-11T10:56:28.385Z,37.69
2023-03-11T10:58:56.156Z,37.70
2023-03-11T11:01:23.382Z,37.80
2023-03-11T11:03:55.969Z,37.49
2023-03-11T11:06:29.808Z,37.45
2023-03-11T11:09:06.529Z,38.20
2023-03-11T11:11:35.702Z,37.42
2023-03-11T11:14:02.386Z,37.21
2023-03-11T11:16:29.610Z,37.15
2023-03-11T11:19:08.372Z,36.94
2023-03-11T11:21:43.563Z,36.77
2023-03-11T11:24:26.197Z,37.10
2023-03-11T11:27:11.581Z,37.20
2023-03-11T11:29:38.490Z,35.79
2023-03-11T11:32:31.184Z,36.39
2023-03-11T11:35:12.053Z,36.61
2023-03-11T11:37:46.353Z,35.53
2023-03-11T11:40:16.473Z,35.45
2023-03-11T11:42:51.502Z,35.14
2023-03-11T11:45:36.903Z,35.67
2023-03-11T11:48:27.079Z,35.32
2023-03-11T11:50:59.562Z,36.04
2023-03-11T11:53:39.863Z,35.17
2023-03-11T11:56:06.672Z,34.87
2023-03-11T11:58:34.839Z,35.09
2023-03-11T12:01:14.244Z,34.79
2023-03-11T12:04:02.382Z,34.43
2023-03-11T12:06:43.983Z,34.10
2023-03-11T12:09:35.162Z,34.29
2023-03-11T12:12:08.130Z,33.91
2023-03-11T12:14:43.785Z,34.24
2023-03-11T12:17:13.428Z,33.11
2023-03-11T12:19:47.968Z,33.46
2023-03-11T12:22:17.500Z,33.19
2023-03-11T12:25:00.885Z,33.37
2023-03-11T12:27:40.178Z,33.43
2023-03-11T12:30:32.734Z,33.39
2023-03-11T12:33:20.648Z,32.96
2023-03-11T12:35:52.396Z,32.74
2023-03-11T12:38:23.621Z,32.56
2023-03-11T12:40:58.817Z,31.82
2023-03-11T12:43:33.531Z,32.27
2023-03-11T12:46:02.351Z,32.22
2023-03-11T12:48:49.784Z,32.27
2023-03-11T12:51:33.652Z,32.08
2023-03-11T12:54:49.356Z,30.93
2023-03-11T12:57:16.079Z,31.27
2023-03-11T12:59:57.665Z,31.80
2023-03-11T13:02:43.885Z,31.10
2023-03-11T13:05:41.394Z,31.53
2023-03-11T13:08:27.144Z,31.92
2023-03-11T13:10:55.857Z,31.22
2023-03-11T13:13:25.265Z,30.99
2023-03-11T13:15:52.898Z,30.63
2023-03-11T13:18:24.411Z,31.34
2023-03-11T13:21:01.691Z,30.60
2023-03-11T13:23:36.411Z,30.79
2023-03-11T13:26:20.685Z,30.61
2023-03-11T13:29:18.350Z,31.10
2023-03-11T13:32:25.115Z,30.21
2023-03-11T13:35:03.793Z,31.46
2023-03-11T13:37:49.046Z,30.02
2023-03-11T13:40:26.318Z,30.40
2023-03-11T13:42:57.663Z,29.95
2023-03-11T13:45:27.696Z,30.90
2023-03-11T13:48:00.729Z,30.27
2023-03-11T13:50:35.526Z,30.38
2023-03-11T13:53:09.644Z,30.69
2023-03-11T13:55:45.097Z,30.65
2023-03-11T13:58:23.409Z,29.90
2023-03-11T14:00:56.005Z,30.81
2023-03-11T14:03:25.507Z,30.14
2023-03-11T14:06:05.049Z,30.33
2023-03-11T14:08:37.519Z,30.22
2023-03-11T14:11:16.189Z,29.91
2023-03-11T14:13:50.219Z,30.16
2023-03-11T14:16:24.697Z,29.79
2023-03-11T14:19:15.411Z,30.00
2023-03-11T14:21:43.589Z,30.02
2023-03-11T14:24:24.024Z,30.39
2023-03-11T14:26:55.744Z,29.45
2023-03-11T14:29:43.324Z,30.01
2023-03-11T14:32:17.887Z,29.92
2023-03-11T14:34:45.994Z,29.95
2023-03-11T14:37:31.236Z,29.65
2023-03-11T14:39:58.196Z,29.91
2023-03-11T14:42:43.708Z,29.77
2023-03-11T14:45:17.071Z,29.73
2023-03-11T14:47:50.692Z,28.86
2023-03-11T14:50:20.900Z,29.59
2023-03-11T14:53:09.361Z,29.08
2023-03-11T14:55:51.070Z,28.85
2023-03-11T14:58:29.269Z,29.03
2023-03-11T15:01:22.682Z,29.49
2023-03-11T15:04:06.839Z,29.74
2023-03-11T15:06:35.838Z,29.38
2023-03-11T15:09:13.370Z,29.58
2023-03-11T15:11:59.182Z,29.41
2023-03-11T15:14:31.934Z,29.72
2023-03-11T15:17:34.888Z,29.43
2023-03-11T15:20:29.363Z,28.90
2023-03-11T15:23:02.404Z,29.11
2023-03-11T15:25:34.645Z,28.80
2023-03-11T15:28:25.234Z,28.93
2023-03-11T15:31:31.069Z,29.18
2023-03-11T15:34:16.890Z,29.12
2023-03-11T15:36:49.294Z,29.26
2023-03-11T15:39:42.017Z,29.28
2023-03-11T15:42:08.817Z,29.37
2023-03-11T15:44:53.654Z,28.91
2023-03-11T15:47:22.994Z,29.20
2023-03-11T15:49:50.432Z,29.34
2023-03-11T15:52:19.224Z,29.28
2023-03-11T15:54:55.171Z,29.86
2023-03-11T15:57:27.308Z,29.81
2023-03-11T15:59:56.265Z,30.64
2023-03-11T16:02:26.178Z,30.04
2023-03-11T16:04:53.324Z,30.74
2023-03-11T16:07:36.547Z,31.02
2023-03-11T16:10:05.892Z,30.13
2023-03-11T16:12:32.663Z,30.55
2023-03-11T16:14:59.333Z,30.28
2023-03-11T16:17:26.609Z,30.92
2023-03-11T16:19:55.318Z,30.82
2023-03-11T16:22:31.276Z,30.51
2023-03-11T16:24:59.783Z,31.17
2023-03-11T16:27:27.493Z,29.81
2023-03-11T16:29:54.115Z,29.97
2023-03-11T16:32:20.933Z,30.84
2023-03-11T16:34:47.618Z,30.05
2023-03-11T16:37:16.726Z,30.68
2023-03-11T16:39:43.457Z,30.87
2023-03-11T16:42:10.125Z,31.50
2023-03-11T16:44:36.848Z,30.99
2023-03-11T16:47:03.550Z,30.70
2023-03-11T16:49:30.417Z,31.93
2023-03-11T16:51:57.017Z,32.03
2023-03-11T16:54:23.724Z,31.96
2023-03-11T16:56:50.307Z,32.22
2023-03-11T16:59:17.001Z,32.70
2023-03-11T17:01:43.678Z,33.10
2023-03-11T17:04:10.463Z,32.95
2023-03-11T17:06:37.114Z,31.81
2023-03-11T17:09:06.684Z,32.22
2023-03-11T17:11:34.433Z,33.44
2023-03-11T17:14:15.551Z,33.92
2023-03-11T17:16:44.638Z,33.63
2023-03-11T17:19:11.513Z,33.10
2023-03-11T17:21:38.138Z,33.09
2023-03-11T17:24:05.403Z,33.04
2023-03-11T17:26:32.201Z,33.51
2023-03-11T17:28:59.331Z,33.12
2023-03-11T17:31:26.131Z,33.46
2023-03-11T17:33:52.854Z,34.25
2023-03-11T17:36:20.341Z,34.52
2023-03-11T17:38:48.181Z,33.51
2023-03-11T17:41:17.265Z,34.01
2023-03-11T17:43:44.943Z,33.92
2023-03-11T17:46:14.517Z,34.92
2023-03-11T17:48:42.445Z,34.07
2023-03-11T17:51:11.714Z,34.25
2023-03-11T17:53:39.935Z,33.87
2023-03-11T17:56:08.008Z,34.03
2023-03-11T17:58:35.652Z,34.18
2023-03-11T18:01:07.689Z,34.61
2023-03-11T18:03:34.557Z,34.54
2023-03-11T18:06:03.310Z,34.83
2023-03-11T18:08:32.101Z,35.07
2023-03-11T18:11:01.971Z,35.19
2023-03-11T18:13:29.780Z,34.48
2023-03-11T18:16:01.662Z,34.84
2023-03-11T18:18:29.916Z,35.42
2023-03-11T18:21:04.773Z,35.01
2023-03-11T18:23:34.781Z,34.78
2023-03-11T18:26:04.997Z,35.38
2023-03-11T18:28:32.036Z,34.34
2023-03-11T18:31:16.052Z,34.19
2023-03-11T18:33:47.699Z,34.59
2023-03-11T18:36:20.903Z,35.09
2023-03-11T18:38:48.878Z,34.54
2023-03-11T18:41:16.069Z,35.12
2023-03-11T18:43:42.952Z,34.98
2023-03-11T18:46:13.305Z,35.18
2023-03-11T18:48:40.274Z,35.48
2023-03-11T18:51:08.984Z,35.44
2023-03-11T18:53:36.171Z,36.04
2023-03-11T18:56:06.062Z,35.91
2023-03-11T18:58:33.548Z,35.81
2023-03-11T19:01:06.292Z,35.77
2023-03-11T19:03:33.402Z,36.33
2023-03-11T19:06:00.372Z,35.78
2023-03-11T19:08:27.397Z,36.43
2023-03-11T19:10:54.161Z,36.18
2023-03-11T19:13:20.919Z,36.30
2023-03-11T19:15:47.724Z,36.80
2023-03-11T19:18:14.414Z,37.46
2023-03-11T19:20:41.043Z,37.83
2023-03-11T19:23:07.864Z,37.33
2023-03-11T19:25:35.078Z,37.02
2023-03-11T19:28:02.847Z,37.06
2023-03-11T19:30:29.876Z,37.64
2023-03-11T19:32:56.712Z,37.20
2023-03-11T19:35:23.836Z,37.58
2023-03-11T19:37:57.027Z,37.20
2023-03-11T19:40:26.084Z,37.32
2023-03-11T19:42:52.792Z,37.33
2023-03-11T19:45:19.549Z,37.26
2023-03-11T19:47:50.700Z,37.32
2023-03-11T19:50:18.306Z,37.76
2023-03-11T19:52:45.389Z,38.26
2023-03-11T19:55:12.493Z,37.32
2023-03-11T19:57:39.120Z,37.42
2023-03-11T20:00:06.740Z,37.33
2023-03-11T20:02:33.491Z,37.74
2023-03-11T20:05:00.412Z,37.61
2023-03-11T20:07:27.309Z,37.67
2023-03-11T20:09:54.078Z,38.08
2023-03-11T20:12:20.739Z,38.11
2023-03-11T20:14:47.481Z,38.27
2023-03-11T20:17:14.727Z,38.26
2023-03-11T20:19:41.615Z,38.39
2023-03-11T20:22:08.252Z,38.04
2023-03-11T20:24:35.037Z,38.78
2023-03-11T20:27:01.614Z,38.61
2023-03-11T20:29:28.559Z,38.55
2023-03-11T20:31:55.362Z,38.78
2023-03-11T20:34:22.292Z,39.41
2023-03-11T20:36:50.810Z,39.19
2023-03-11T20:39:17.741Z,38.75
2023-03-11T20:41:44.484Z,39.05
2023-03-11T20:44:13.682Z,39.16
2023-03-11T20:46:59.169Z,39.42
2023-03-11T20:49:25.974Z,38.82
2023-03-11T20:51:52.666Z,39.45
2023-03-11T20:54:19.839Z,39.54
2023-03-11T20:56:46.667Z,40.08
2023-03-11T20:59:16.368Z,40.63
2023-03-11T21:01:43.639Z,40.40
2023-03-11T21:04:10.549Z,40.25
2023-03-11T21:06:39.556Z,39.94
2023-03-11T21:09:11.040Z,40.43
2023-03-11T21:11:38.063Z,40.46
2023-03-11T21:14:06.111Z,40.14
2023-03-11T21:16:33.455Z,39.72
2023-03-11T21:19:05.213Z,39.85
2023-03-11T21:21:32.219Z,40.36
2023-03-11T21:23:58.976Z,39.99
2023-03-11T21:26:25.895Z,40.18
2023-03-11T21:28:52.604Z,40.97
2023-03-11T21:31:22.100Z,40.50
2023-03-11T21:33:52.201Z,40.57
2023-03-11T21:36:19.266Z,40.37
2023-03-11T21:38:47.460Z,41.34
2023-03-11T21:41:15.845Z,41.27
2023-03-11T21:43:43.558Z,41.05
2023-03-11T21:46:13.357Z,41.39
2023-03-11T21:48:40.421Z,41.35
2023-03-11T21:51:07.895Z,41.22
2023-03-11T21:53:35.618Z,41.77
2023-03-11T21:56:03.837Z,41.55
2023-03-11T21:58:31.432Z,41.97
2023-03-11T22:00:58.191Z,42.45
2023-03-11T22:03:25.116Z,43.07
2023-03-11T22:06:02.354Z,44.10
2023-03-11T22:08:29.164Z,43.95
2023-03-11T22:10:56.063Z,44.04
2023-03-11T22:13:23.631Z,44.66
2023-03-11T22:15:50.564Z,45.04
2023-03-11T22:18:17.642Z,44.58
2023-03-11T22:20:44.961Z,45.52
2023-03-11T22:23:11.803Z,45.22
2023-03-11T22:25:38.450Z,45.19
2023-03-11T22:28:05.471Z,44.91
2023-03-11T22:30:32.186Z,45.29
2023-03-11T22:32:59.062Z,45.92
2023-03-11T22:35:25.703Z,45.88
2023-03-11T22:37:52.429Z,46.20
2023-03-11T22:40:19.148Z,45.73
2023-03-11T22:42:45.801Z,45.98
2023-03-11T22:45:12.435Z,45.77
2023-03-11T22:47:39.047Z,45.82
2023-03-11T22:50:05.901Z,46.24
2023-03-11T22:52:32.546Z,46.58
2023-03-11T22:54:59.194Z,47.20
2023-03-11T22:57:25.865Z,47.90
2023-03-11T22:59:52.548Z,47.35
2023-03-11T23:02:19.280Z,47.15
2023-03-11T23:04:46.229Z,46.89
2023-03-11T23:07:13.037Z,47.55
2023-03-11T23:09:39.743Z,47.59
2023-03-11T23:12:07.127Z,48.24
2023-03-11T23:14:44.599Z,47.86
2023-03-11T23:17:12.627Z,48.38
2023-03-11T23:19:39.314Z,47.50
2023-03-11T23:22:07.014Z,48.13
2023-03-11T23:24:34.152Z,47.51
2023-03-11T23:27:04.626Z,48.01
2023-03-11T23:29:32.267Z,48.08
2023-03-11T23:31:59.190Z,47.58
2023-03-11T23:34:26.143Z,47.82
2023-03-11T23:36:52.744Z,48.60
2023-03-11T23:39:19.472Z,48.54
2023-03-11T23:41:46.043Z,48.61
2023-03-11T23:44:14.314Z,48.62
2023-03-11T23:46:40.949Z,49.22
2023-03-11T23:49:07.597Z,48.99
2023-03-11T23:51:34.265Z,49.51
2023-03-11T23:54:01.010Z,49.71
2023-03-11T23:56:28.007Z,49.75
2023-03-11T23:58:54.736Z,49.57
